Time,TemperatureF,DewpointF,PressureIn,WindDirection,WindDirectionDegrees,WindSpeedMPH,WindSpeedGustMPH,Humidity,HourlyPrecipIn,Conditions,Clouds,dailyrainin,SoftwareType,DateUTC
2013-03-24 00:01:00,52.0,47.0,29.99,NW,313,2.0,2.0,84,0.00,,,0.00,,2013-03-24 07:01:00,
2013-03-24 00:11:00,52.0,47.0,29.99,NW,313,2.0,2.0,84,0.00,,,0.00,,2013-03-24 07:11:00,
2013-03-24 00:22:00,52.0,47.0,29.99,NW,313,2.0,2.0,84,0.00,,,0.00,,2013-03-24 07:22:00,
2013-03-24 00:31:00,52.0,47.0,29.99,NW,313,2.0,2.0,84,0.00,,,0.00,,2013-03-24 07:31:00,
2013-03-24 01:52:00,49.0,45.0,29.98,North,350,0.0,-999.0,86,-99.99,,,-99.99,,2013-03-24 08:52:00,
2013-03-24 02:02:00,49.0,45.0,29.98,North,350,0.0,-999.0,86,-99.99,,,-99.99,,2013-03-24 09:02:00,
2013-03-24 02:12:00,49.0,45.0,29.98,North,350,0.0,-999.0,86,-99.99,,,-99.99,,2013-03-24 09:12:00,
2013-03-24 02:21:00,50.0,46.0,29.98,North,350,1.0,1.0,87,0.00,,,0.00,,2013-03-24 09:21:00,
2013-03-24 02:32:00,50.0,46.0,29.98,North,350,1.0,1.0,87,0.00,,,0.00,,2013-03-24 09:32:00,
2013-03-24 02:42:00,50.0,46.0,29.98,North,350,1.0,1.0,87,0.00,,,0.00,,2013-03-24 09:42:00,
2013-03-24 02:52:00,50.0,46.0,29.99,North,350,1.0,1.0,87,0.00,,,0.00,,2013-03-24 09:52:00,
2013-03-24 03:02:00,50.0,46.0,29.99,North,350,1.0,1.0,87,0.00,,,0.00,,2013-03-24 10:02:00,
2013-03-24 03:12:00,50.0,46.0,29.99,North,350,1.0,1.0,87,0.00,,,0.00,,2013-03-24 10:12:00,
2013-03-24 03:22:00,50.0,46.0,29.98,North,350,0.0,0.0,86,0.00,,,0.00,,2013-03-24 10:22:00,
2013-03-24 03:32:00,50.0,46.0,29.98,North,350,0.0,0.0,86,0.00,,,0.00,,2013-03-24 10:32:00,
2013-03-24 03:42:00,50.0,46.0,29.98,North,350,0.0,0.0,86,0.00,,,0.00,,2013-03-24 10:42:00,
2013-03-24 03:52:00,48.0,43.0,29.97,North,360,4.0,4.0,84,0.00,,,0.00,,2013-03-24 10:52:00,
2013-03-24 04:02:00,48.0,43.0,29.97,North,360,4.0,4.0,84,0.00,,,0.00,,2013-03-24 11:02:00,
2013-03-24 04:21:00,47.0,43.0,29.97,NE,40,1.0,1.0,86,0.00,,,0.00,,2013-03-24 11:21:00,
2013-03-24 04:32:00,47.0,43.0,29.97,NE,40,1.0,1.0,86,0.00,,,0.00,,2013-03-24 11:32:00,
2013-03-24 04:42:00,47.0,43.0,29.97,NE,40,1.0,1.0,86,0.00,,,0.00,,2013-03-24 11:42:00,
2013-03-24 04:52:00,47.0,43.0,29.97,NE,40,1.0,1.0,86,0.00,,,0.00,,2013-03-24 11:52:00,
2013-03-24 05:02:00,47.0,43.0,29.97,NE,40,1.0,1.0,86,0.00,,,0.00,,2013-03-24 12:02:00,
2013-03-24 05:23:00,47.0,44.0,29.98,NE,39,0.0,0.0,88,0.00,,,0.00,,2013-03-24 12:23:00,
2013-03-24 05:32:00,47.0,44.0,29.98,NE,39,0.0,0.0,88,0.00,,,0.00,,2013-03-24 12:32:00,
2013-03-24 05:42:00,47.0,44.0,29.98,NE,39,0.0,0.0,88,0.00,,,0.00,,2013-03-24 12:42:00,
2013-03-24 05:52:00,46.0,43.0,29.98,NE,40,0.0,0.0,88,0.00,,,0.00,,2013-03-24 12:52:00,
2013-03-24 06:01:00,46.0,43.0,29.98,NE,40,0.0,0.0,88,0.00,,,0.00,,2013-03-24 13:01:00,
2013-03-24 06:12:00,46.0,43.0,29.98,NE,40,0.0,0.0,88,0.00,,,0.00,,2013-03-24 13:12:00,
2013-03-24 06:22:00,46.0,43.0,29.98,NE,40,0.0,0.0,88,0.00,,,0.00,,2013-03-24 13:22:00,
2013-03-24 06:31:00,46.0,43.0,29.98,NE,40,0.0,0.0,88,0.00,,,0.00,,2013-03-24 13:31:00,
2013-03-24 06:52:00,45.0,42.0,29.99,NE,39,1.0,-999.0,88,-99.99,,,-99.99,,2013-03-24 13:52:00,
2013-03-24 07:02:00,45.0,42.0,29.99,NE,39,1.0,-999.0,88,-99.99,,,-99.99,,2013-03-24 14:02:00,
2013-03-24 07:12:00,45.0,42.0,29.99,NE,39,1.0,-999.0,88,-99.99,,,-99.99,,2013-03-24 14:12:00,
2013-03-24 07:21:00,45.0,42.0,29.99,NE,39,1.0,-999.0,88,-99.99,,,-99.99,,2013-03-24 14:21:00,
2013-03-24 07:32:00,45.0,42.0,29.99,NE,39,1.0,-999.0,88,-99.99,,,-99.99,,2013-03-24 14:32:00,
2013-03-24 07:52:00,46.0,42.0,30.00,NNE,32,0.0,0.0,87,0.00,,,0.00,,2013-03-24 14:52:00,
2013-03-24 08:02:00,46.0,42.0,30.00,NNE,32,0.0,0.0,87,0.00,,,0.00,,2013-03-24 15:02:00,
2013-03-24 08:12:00,46.0,42.0,30.00,NNE,32,0.0,0.0,87,0.00,,,0.00,,2013-03-24 15:12:00,
2013-03-24 08:22:00,46.0,42.0,30.00,NNE,32,0.0,0.0,87,0.00,,,0.00,,2013-03-24 15:22:00,
2013-03-24 08:32:00,46.0,42.0,30.00,NNE,32,0.0,0.0,87,0.00,,,0.00,,2013-03-24 15:32:00,
2013-03-24 09:52:00,59.0,47.0,30.02,NNE,32,0.0,0.0,65,0.00,,,0.00,,2013-03-24 16:52:00,
2013-03-24 10:02:00,59.0,47.0,30.02,NNE,32,0.0,0.0,65,0.00,,,0.00,,2013-03-24 17:02:00,
2013-03-24 10:12:00,59.0,47.0,30.02,NNE,32,0.0,0.0,65,0.00,,,0.00,,2013-03-24 17:12:00,
2013-03-24 10:22:00,59.0,47.0,30.02,NNE,32,0.0,0.0,65,0.00,,,0.00,,2013-03-24 17:22:00,
2013-03-24 10:32:00,59.0,47.0,30.02,NNE,32,0.0,0.0,65,0.00,,,0.00,,2013-03-24 17:32:00,
2013-03-24 11:22:00,65.0,44.0,30.00,NNE,19,5.0,5.0,47,0.00,,,0.00,,2013-03-24 18:22:00,
2013-03-24 11:33:00,65.0,44.0,30.00,NNE,19,5.0,5.0,47,0.00,,,0.00,,2013-03-24 18:33:00,
2013-03-24 11:43:00,65.0,44.0,30.00,NNE,19,5.0,5.0,47,0.00,,,0.00,,2013-03-24 18:43:00,
2013-03-24 11:52:00,67.0,45.0,30.00,WSW,237,4.0,-999.0,45,-99.99,,,-99.99,,2013-03-24 18:52:00,
2013-03-24 12:02:00,67.0,45.0,30.00,WSW,237,4.0,-999.0,45,-99.99,,,-99.99,,2013-03-24 19:02:00,
2013-03-24 12:12:00,67.0,45.0,30.00,WSW,237,4.0,-999.0,45,-99.99,,,-99.99,,2013-03-24 19:12:00,
2013-03-24 12:22:00,67.0,50.0,29.99,SW,235,7.0,7.0,54,0.00,,,0.00,,2013-03-24 19:22:00,
2013-03-24 12:31:00,67.0,50.0,29.99,SW,235,7.0,7.0,54,0.00,,,0.00,,2013-03-24 19:31:00,
2013-03-24 12:43:00,67.0,50.0,29.99,SW,235,7.0,7.0,54,0.00,,,0.00,,2013-03-24 19:43:00,
2013-03-24 12:53:00,66.0,51.0,29.98,SW,215,5.0,5.0,58,0.00,,,0.00,,2013-03-24 19:53:00,
2013-03-24 13:02:00,66.0,51.0,29.98,SW,215,5.0,5.0,58,0.00,,,0.00,,2013-03-24 20:02:00,
2013-03-24 13:12:00,66.0,51.0,29.98,SW,215,5.0,5.0,58,0.00,,,0.00,,2013-03-24 20:12:00,
2013-03-24 13:22:00,66.0,51.0,29.98,SW,215,5.0,5.0,58,0.00,,,0.00,,2013-03-24 20:22:00,
2013-03-24 13:31:00,66.0,51.0,29.98,SW,215,5.0,5.0,58,0.00,,,0.00,,2013-03-24 20:31:00,
2013-03-24 14:53:00,67.0,50.0,29.95,WSW,246,5.0,5.0,54,0.00,,,0.00,,2013-03-24 21:53:00,
2013-03-24 15:02:00,67.0,50.0,29.95,WSW,246,5.0,5.0,54,0.00,,,0.00,,2013-03-24 22:02:00,
2013-03-24 15:12:00,67.0,50.0,29.95,WSW,246,5.0,5.0,54,0.00,,,0.00,,2013-03-24 22:12:00,
2013-03-24 15:22:00,67.0,50.0,29.94,West,263,6.0,6.0,55,0.00,,,0.00,,2013-03-24 22:22:00,
2013-03-24 15:32:00,67.0,50.0,29.94,West,263,6.0,6.0,55,0.00,,,0.00,,2013-03-24 22:32:00,
2013-03-24 15:43:00,67.0,50.0,29.94,West,263,6.0,6.0,55,0.00,,,0.00,,2013-03-24 22:43:00,
2013-03-24 15:52:00,67.0,50.0,29.94,West,263,6.0,6.0,55,0.00,,,0.00,,2013-03-24 22:52:00,
2013-03-24 16:02:00,67.0,50.0,29.94,West,263,6.0,6.0,55,0.00,,,0.00,,2013-03-24 23:02:00,
2013-03-24 16:52:00,66.0,49.0,29.93,WSW,238,5.0,5.0,55,0.00,,,0.00,,2013-03-24 23:52:00,
2013-03-24 17:02:00,66.0,49.0,29.93,WSW,238,5.0,5.0,55,0.00,,,0.00,,2013-03-25 00:02:00,
2013-03-24 17:12:00,66.0,49.0,29.93,WSW,238,5.0,5.0,55,0.00,,,0.00,,2013-03-25 00:12:00,
2013-03-24 17:22:00,65.0,50.0,29.91,WNW,282,6.0,6.0,59,0.00,,,0.00,,2013-03-25 00:22:00,
2013-03-24 17:32:00,65.0,50.0,29.91,WNW,282,6.0,6.0,59,0.00,,,0.00,,2013-03-25 00:32:00,
2013-03-24 17:43:00,65.0,50.0,29.91,WNW,282,6.0,6.0,59,0.00,,,0.00,,2013-03-25 00:43:00,
2013-03-24 17:52:00,65.0,50.0,29.91,WNW,282,6.0,6.0,59,0.00,,,0.00,,2013-03-25 00:52:00,
2013-03-24 18:01:00,65.0,50.0,29.91,WNW,282,6.0,6.0,59,0.00,,,0.00,,2013-03-25 01:01:00,
2013-03-24 18:22:00,63.0,50.0,29.91,West,261,3.0,3.0,62,0.00,,,0.00,,2013-03-25 01:22:00,
2013-03-24 18:32:00,63.0,50.0,29.91,West,261,3.0,3.0,62,0.00,,,0.00,,2013-03-25 01:32:00,
2013-03-24 18:42:00,63.0,50.0,29.91,West,261,3.0,3.0,62,0.00,,,0.00,,2013-03-25 01:42:00,
2013-03-24 18:52:00,62.0,51.0,29.90,WSW,255,0.0,0.0,66,0.00,,,0.00,,2013-03-25 01:52:00,
2013-03-24 19:01:00,62.0,51.0,29.90,WSW,255,0.0,0.0,66,0.00,,,0.00,,2013-03-25 02:01:00,
2013-03-24 19:11:00,62.0,51.0,29.90,WSW,255,0.0,0.0,66,0.00,,,0.00,,2013-03-25 02:11:00,
2013-03-24 19:22:00,60.0,49.0,29.90,WSW,255,3.0,3.0,66,0.00,,,0.00,,2013-03-25 02:22:00,
2013-03-24 19:31:00,60.0,49.0,29.90,WSW,255,3.0,3.0,66,0.00,,,0.00,,2013-03-25 02:31:00,
2013-03-24 19:43:00,60.0,49.0,29.90,WSW,255,3.0,3.0,66,0.00,,,0.00,,2013-03-25 02:43:00,
2013-03-24 19:52:00,60.0,49.0,29.90,WSW,255,3.0,3.0,66,0.00,,,0.00,,2013-03-25 02:52:00,
2013-03-24 20:01:00,60.0,49.0,29.90,WSW,255,3.0,3.0,66,0.00,,,0.00,,2013-03-25 03:01:00,
2013-03-24 21:02:00,58.0,50.0,29.91,West,269,1.0,-999.0,74,-99.99,,,-99.99,,2013-03-25 04:02:00,
2013-03-24 21:23:00,58.0,50.0,29.91,West,269,1.0,-999.0,74,-99.99,,,-99.99,,2013-03-25 04:23:00,
2013-03-24 21:33:00,58.0,50.0,29.91,West,269,1.0,-999.0,74,-99.99,,,-99.99,,2013-03-25 04:33:00,
2013-03-24 21:43:00,58.0,50.0,29.91,West,269,1.0,-999.0,74,-99.99,,,-99.99,,2013-03-25 04:43:00,
2013-03-24 21:52:00,58.0,50.0,29.91,West,269,1.0,-999.0,74,-99.99,,,-99.99,,2013-03-25 04:52:00,
2013-03-24 22:52:00,56.0,51.0,29.92,West,272,4.0,4.0,82,0.00,,,0.00,,2013-03-25 05:52:00,
2013-03-24 23:02:00,56.0,51.0,29.92,West,272,4.0,4.0,82,0.00,,,0.00,,2013-03-25 06:02:00,
2013-03-24 23:12:00,56.0,51.0,29.92,West,272,4.0,4.0,82,0.00,,,0.00,,2013-03-25 06:12:00,
2013-03-24 23:21:00,55.0,49.0,29.92,West,273,0.0,0.0,79,0.00,,,0.00,,2013-03-25 06:21:00,
2013-03-24 23:32:00,55.0,49.0,29.92,West,273,0.0,0.0,79,0.00,,,0.00,,2013-03-25 06:32:00,
2013-03-24 23:42:00,55.0,49.0,29.92,West,273,0.0,0.0,79,0.00,,,0.00,,2013-03-25 06:42:00,
2013-03-24 23:52:00,55.0,49.0,29.92,West,273,0.0,0.0,79,0.00,,,0.00,,2013-03-25 06:52:00,